createdAt,value
2018-12-10T00:00:08.792Z,7.20
2018-12-10T00:02:36.730Z,7.10
2018-12-10T00:05:05.654Z,7.00
2018-12-10T00:07:33.465Z,6.90
2018-12-10T00:10:01.340Z,6.90
2018-12-10T00:12:29.262Z,6.80
2018-12-10T00:14:57.764Z,6.80
2018-12-10T00:17:25.737Z,6.80
2018-12-10T00:19:53.462Z,6.80
2018-12-10T00:22:21.130Z,6.80
2018-12-10T00:24:48.855Z,6.80
2018-12-10T00:27:16.498Z,6.90
2018-12-10T00:29:44.198Z,6.80
2018-12-10T00:32:12.227Z,6.80
2018-12-10T00:34:40.530Z,6.80
2018-12-10T00:37:08.466Z,6.80
2018-12-10T00:39:36.215Z,6.80
2018-12-10T00:42:03.892Z,6.90
2018-12-10T00:44:32.033Z,6.90
2018-12-10T00:46:59.977Z,6.90
2018-12-10T00:49:27.699Z,7.00
2018-12-10T00:51:56.280Z,7.00
2018-12-10T00:54:24.110Z,6.90
2018-12-10T00:56:51.822Z,6.90
2018-12-10T00:59:19.669Z,6.90
2018-12-10T01:01:47.329Z,6.90
2018-12-10T01:04:14.973Z,6.90
2018-12-10T01:06:42.671Z,6.90
2018-12-10T01:09:10.327Z,6.90
2018-12-10T01:11:37.960Z,6.90
2018-12-10T01:14:05.610Z,6.70
2018-12-10T01:16:33.399Z,6.70
2018-12-10T01:19:02.747Z,6.60
2018-12-10T01:21:30.551Z,6.70
2018-12-10T01:23:58.232Z,6.70
2018-12-10T01:26:25.871Z,6.60
2018-12-10T01:28:53.565Z,6.70
2018-12-10T01:31:21.349Z,6.70
2018-12-10T01:33:49.652Z,6.80
2018-12-10T01:36:17.361Z,6.80
2018-12-10T01:38:44.987Z,6.80
2018-12-10T01:41:12.670Z,6.90
2018-12-10T01:43:40.458Z,6.90
2018-12-10T01:46:09.249Z,6.90
2018-12-10T01:48:36.998Z,6.90
2018-12-10T01:51:04.825Z,6.90
2018-12-10T01:53:32.625Z,6.90
2018-12-10T01:56:01.013Z,7.00
2018-12-10T01:58:28.668Z,6.90
2018-12-10T02:00:56.414Z,6.90
2018-12-10T02:03:24.419Z,6.90
2018-12-10T02:05:52.055Z,6.90
2018-12-10T02:08:20.325Z,7.00
2018-12-10T02:10:48.066Z,6.90
2018-12-10T02:13:16.293Z,6.90
2018-12-10T02:15:43.986Z,6.90
2018-12-10T02:18:11.597Z,6.90
2018-12-10T02:20:39.429Z,7.00
2018-12-10T02:23:07.254Z,6.90
2018-12-10T02:25:34.973Z,6.90
2018-12-10T02:28:03.795Z,6.90
2018-12-10T02:30:31.440Z,6.90
2018-12-10T02:32:59.137Z,7.00
2018-12-10T02:35:26.762Z,6.90
2018-12-10T02:37:54.496Z,6.90
2018-12-10T02:40:22.686Z,7.00
2018-12-10T02:42:50.375Z,6.90
2018-12-10T02:45:17.988Z,6.90
2018-12-10T02:47:45.575Z,6.90
2018-12-10T02:50:13.267Z,6.90
2018-12-10T02:52:40.994Z,6.80
2018-12-10T02:55:08.704Z,6.80
2018-12-10T02:57:36.288Z,6.90
2018-12-10T03:00:04.266Z,6.90
2018-12-10T03:02:32.135Z,6.90
2018-12-10T03:10:45.800Z,7.00
2018-12-10T03:13:13.463Z,7.00
2018-12-10T03:15:41.292Z,7.00
2018-12-10T03:18:08.963Z,6.90
2018-12-10T03:20:36.647Z,7.00
2018-12-10T03:23:04.242Z,7.00
2018-12-10T03:25:31.983Z,7.00
2018-12-10T03:28:00.237Z,7.00
2018-12-10T03:30:28.528Z,7.00
2018-12-10T03:32:56.236Z,7.00
2018-12-10T03:35:23.844Z,7.00
2018-12-10T03:37:51.500Z,7.00
2018-12-10T03:40:19.161Z,7.00
2018-12-10T03:42:47.501Z,7.00
2018-12-10T03:45:15.132Z,7.00
2018-12-10T03:47:42.785Z,7.00
2018-12-10T03:50:10.426Z,6.90
2018-12-10T03:52:38.104Z,6.90
2018-12-10T03:55:06.179Z,7.00
2018-12-10T03:57:33.849Z,7.00
2018-12-10T04:00:01.566Z,7.00
2018-12-10T04:02:29.306Z,6.90
2018-12-10T04:04:56.982Z,6.90
2018-12-10T04:07:24.571Z,6.90
2018-12-10T04:09:53.032Z,6.80
2018-12-10T04:12:20.789Z,6.80
2018-12-10T04:14:49.088Z,6.90
2018-12-10T04:17:16.754Z,6.90
2018-12-10T04:19:44.373Z,6.90
2018-12-10T04:22:12.111Z,6.90
2018-12-10T04:24:39.736Z,6.80
2018-12-10T04:27:07.483Z,6.80
2018-12-10T04:29:35.139Z,6.90
2018-12-10T04:32:03.423Z,6.90
2018-12-10T04:34:31.106Z,6.80
2018-12-10T04:36:58.714Z,6.80
2018-12-10T04:39:26.467Z,6.80
2018-12-10T04:41:54.826Z,6.80
2018-12-10T04:44:22.525Z,6.80
2018-12-10T04:46:50.105Z,6.80
2018-12-10T04:49:17.850Z,6.80
2018-12-10T04:51:45.711Z,6.80
2018-12-10T04:54:13.331Z,6.80
2018-12-10T04:56:41.789Z,6.80
2018-12-10T04:59:09.531Z,6.70
2018-12-10T05:01:37.194Z,6.60
2018-12-10T05:04:04.787Z,6.50
2018-12-10T05:06:32.413Z,6.40
2018-12-10T05:09:00.146Z,6.40
2018-12-10T05:11:27.965Z,6.30
2018-12-10T05:13:55.602Z,6.20
2018-12-10T05:16:23.355Z,6.10
2018-12-10T05:18:50.990Z,6.10
2018-12-10T05:21:18.641Z,6.20
2018-12-10T05:23:46.321Z,6.30
2018-12-10T05:26:14.034Z,6.30
2018-12-10T05:28:41.726Z,6.40
2018-12-10T05:31:10.280Z,6.40
2018-12-10T05:33:37.918Z,6.40
2018-12-10T05:36:05.685Z,6.40
2018-12-10T05:38:33.318Z,6.40
2018-12-10T05:41:01.926Z,6.40
2018-12-10T05:43:30.639Z,6.40
2018-12-10T05:45:59.073Z,6.40
2018-12-10T05:48:26.726Z,6.50
2018-12-10T05:50:54.438Z,6.40
2018-12-10T05:53:22.066Z,6.50
2018-12-10T05:55:49.830Z,6.50
2018-12-10T05:58:17.809Z,6.50
2018-12-10T06:00:45.758Z,6.40
2018-12-10T06:03:13.395Z,6.50
2018-12-10T06:05:41.313Z,6.50
2018-12-10T06:08:09.550Z,6.40
2018-12-10T06:10:37.275Z,6.40
2018-12-10T06:13:05.466Z,6.40
2018-12-10T06:15:33.870Z,6.40
2018-12-10T06:18:01.470Z,6.40
2018-12-10T06:20:29.150Z,6.40
2018-12-10T06:22:56.919Z,6.40
2018-12-10T06:25:24.740Z,6.40
2018-12-10T06:27:52.640Z,6.30
2018-12-10T06:30:21.309Z,6.40
2018-12-10T06:32:49.070Z,6.40
2018-12-10T06:35:16.796Z,6.40
2018-12-10T06:37:44.587Z,6.40
2018-12-10T06:40:13.009Z,6.40
2018-12-10T06:42:40.984Z,6.50
2018-12-10T06:45:08.754Z,6.50
2018-12-10T06:47:36.590Z,6.50
2018-12-10T06:50:05.150Z,6.50
2018-12-10T06:52:32.816Z,6.50
2018-12-10T06:55:01.649Z,6.50
2018-12-10T06:57:29.574Z,6.50
2018-12-10T06:59:57.443Z,6.50
2018-12-10T07:02:25.282Z,6.50
2018-12-10T07:04:53.650Z,6.50
2018-12-10T07:07:21.792Z,6.40
2018-12-10T07:09:49.571Z,6.40
2018-12-10T07:12:17.253Z,6.40
2018-12-10T07:14:45.022Z,6.30
2018-12-10T07:17:12.908Z,6.30
2018-12-10T07:19:40.753Z,6.30
2018-12-10T07:22:08.574Z,6.30
2018-12-10T07:24:36.292Z,6.30
2018-12-10T07:27:04.130Z,6.40
2018-12-10T07:29:32.560Z,6.30
2018-12-10T07:32:00.270Z,6.20
2018-12-10T07:34:28.170Z,6.30
2018-12-10T07:36:55.899Z,6.30
2018-12-10T07:39:25.336Z,6.40
2018-12-10T07:41:52.993Z,6.50
2018-12-10T07:44:20.821Z,6.40
2018-12-10T07:46:48.570Z,6.40
2018-12-10T07:49:16.379Z,6.40
2018-12-10T07:51:44.122Z,6.40
2018-12-10T07:54:11.933Z,6.50
2018-12-10T07:56:39.679Z,6.60
2018-12-10T07:59:07.318Z,6.60
2018-12-10T08:01:35.057Z,6.60
2018-12-10T08:04:02.828Z,6.70
2018-12-10T08:06:30.454Z,6.70
2018-12-10T08:08:58.133Z,6.70
2018-12-10T08:11:25.860Z,6.70
2018-12-10T08:13:53.660Z,6.70
2018-12-10T08:16:21.342Z,6.70
2018-12-10T08:18:49.777Z,6.70
2018-12-10T08:21:17.456Z,6.80
2018-12-10T08:23:46.564Z,6.80
2018-12-10T08:26:14.642Z,6.80
2018-12-10T08:28:42.828Z,6.90
2018-12-10T08:31:10.475Z,6.90
2018-12-10T08:33:39.779Z,6.90
2018-12-10T08:36:07.538Z,6.90
2018-12-10T08:38:35.186Z,7.00
2018-12-10T08:41:03.460Z,7.00
2018-12-10T08:43:31.316Z,7.00
2018-12-10T08:45:59.006Z,7.00
2018-12-10T08:48:26.697Z,7.00
2018-12-10T08:50:54.410Z,7.00
2018-12-10T08:53:22.094Z,7.00
2018-12-10T08:55:49.762Z,7.00
2018-12-10T08:58:17.584Z,7.10
2018-12-10T09:00:45.299Z,7.10
2018-12-10T09:03:13.268Z,7.10
2018-12-10T09:05:41.358Z,7.10
2018-12-10T09:08:09.107Z,7.00
2018-12-10T09:10:36.907Z,7.10
2018-12-10T09:13:04.740Z,7.00
2018-12-10T09:15:32.469Z,7.10
2018-12-10T09:18:00.238Z,7.20
2018-12-10T09:20:28.018Z,7.30
2018-12-10T09:22:55.861Z,7.30
2018-12-10T09:25:24.700Z,7.30
2018-12-10T09:27:53.398Z,7.40
2018-12-10T09:30:21.089Z,7.50
2018-12-10T09:32:49.233Z,7.50
2018-12-10T09:35:17.048Z,7.60
2018-12-10T09:37:45.058Z,7.80
2018-12-10T09:40:12.911Z,7.80
2018-12-10T09:42:41.968Z,7.80
2018-12-10T09:45:09.806Z,7.50
2018-12-10T09:47:37.607Z,7.70
2018-12-10T09:50:06.522Z,7.70
2018-12-10T09:52:34.511Z,7.70
2018-12-10T09:55:02.364Z,7.70
2018-12-10T09:57:30.183Z,7.70
2018-12-10T09:59:57.887Z,7.70
2018-12-10T10:02:26.010Z,7.70
2018-12-10T10:04:53.718Z,7.70
2018-12-10T10:07:28.432Z,7.80
2018-12-10T10:09:51.270Z,7.80
2018-12-10T10:12:19.836Z,7.80
2018-12-10T10:14:48.361Z,7.90
2018-12-10T10:17:16.033Z,7.90
2018-12-10T10:19:44.585Z,7.80
2018-12-10T10:22:12.309Z,7.80
2018-12-10T10:24:39.989Z,7.80
2018-12-10T10:27:07.831Z,7.80
2018-12-10T10:29:35.614Z,7.80
2018-12-10T10:32:03.317Z,7.80
2018-12-10T10:34:31.059Z,7.90
2018-12-10T10:36:59.322Z,8.00
2018-12-10T10:39:28.269Z,8.00
2018-12-10T10:41:57.381Z,8.00
2018-12-10T10:44:25.353Z,8.10
2018-12-10T10:46:53.177Z,8.00
2018-12-10T10:49:21.121Z,8.00
2018-12-10T10:51:49.017Z,8.00
2018-12-10T10:54:17.695Z,8.00
2018-12-10T10:56:45.431Z,8.00
2018-12-10T10:59:13.167Z,8.10
2018-12-10T11:01:46.779Z,8.10
2018-12-10T11:04:14.418Z,8.20
2018-12-10T11:06:42.207Z,8.20
2018-12-10T11:09:15.258Z,8.20
2018-12-10T11:11:40.725Z,8.20
2018-12-10T11:14:08.662Z,8.20
2018-12-10T11:16:36.293Z,8.10
2018-12-10T11:19:04.640Z,8.10
2018-12-10T11:21:32.514Z,8.20
2018-12-10T11:24:00.142Z,8.20
2018-12-10T11:26:27.976Z,8.20
2018-12-10T11:28:58.897Z,8.10
2018-12-10T11:31:26.745Z,8.10
2018-12-10T11:33:54.665Z,8.10
2018-12-10T11:36:23.343Z,8.10
2018-12-10T11:38:51.693Z,8.20
2018-12-10T11:41:19.919Z,8.20
2018-12-10T11:43:48.545Z,8.20
2018-12-10T11:46:16.296Z,8.30
2018-12-10T11:48:44.758Z,8.30
2018-12-10T11:51:14.175Z,8.40
2018-12-10T11:53:41.846Z,8.50
2018-12-10T11:56:10.327Z,8.40
2018-12-10T11:58:38.009Z,8.50
2018-12-10T12:01:06.295Z,8.60
2018-12-10T12:03:33.961Z,8.50
2018-12-10T12:06:01.559Z,8.50
2018-12-10T12:08:29.358Z,8.40
2018-12-10T12:10:57.038Z,8.30
2018-12-10T12:13:24.692Z,8.30
2018-12-10T12:15:52.343Z,8.30
2018-12-10T12:18:21.234Z,8.30
2018-12-10T12:20:48.879Z,8.30
2018-12-10T12:23:16.634Z,8.30
2018-12-10T12:25:44.297Z,8.20
2018-12-10T12:28:11.960Z,8.20
2018-12-10T12:30:39.684Z,8.20
2018-12-10T12:33:07.401Z,8.20
2018-12-10T12:35:35.066Z,8.30
2018-12-10T12:38:07.010Z,8.20
2018-12-10T12:40:34.785Z,8.20
2018-12-10T12:43:06.904Z,8.20
2018-12-10T12:45:32.301Z,8.30
2018-12-10T12:48:00.151Z,8.30
2018-12-10T12:50:27.900Z,8.30
2018-12-10T12:52:55.725Z,8.40
2018-12-10T12:55:24.971Z,8.40
2018-12-10T12:57:52.691Z,8.40
2018-12-10T13:00:26.962Z,8.50
2018-12-10T13:02:50.855Z,8.60
2018-12-10T13:05:19.170Z,8.50
2018-12-10T13:07:46.992Z,8.50
2018-12-10T13:10:14.799Z,8.60
2018-12-10T13:12:43.465Z,8.60
2018-12-10T13:15:11.261Z,8.50
2018-12-10T13:17:39.039Z,8.60
2018-12-10T13:20:07.200Z,8.70
2018-12-10T13:22:34.937Z,9.00
2018-12-10T13:25:02.870Z,9.30
2018-12-10T13:27:30.554Z,9.60
2018-12-10T13:29:58.306Z,9.80
2018-12-10T13:32:26.261Z,9.90
2018-12-10T13:34:54.107Z,10.10
2018-12-10T13:37:21.938Z,10.10
2018-12-10T13:39:49.696Z,9.90
2018-12-10T13:42:17.476Z,9.70
2018-12-10T13:44:49.061Z,9.40
2018-12-10T13:47:16.954Z,9.40
2018-12-10T13:49:45.015Z,9.20
2018-12-10T13:52:12.826Z,9.20
2018-12-10T13:54:41.098Z,9.30
2018-12-10T13:57:09.069Z,9.20
2018-12-10T13:59:36.978Z,9.00
2018-12-10T14:02:04.905Z,9.00
2018-12-10T14:04:37.266Z,8.90
2018-12-10T14:07:05.749Z,8.80
2018-12-10T14:09:33.837Z,8.80
2018-12-10T14:12:01.642Z,8.70
2018-12-10T14:14:29.636Z,8.70
2018-12-10T14:16:57.374Z,8.70
2018-12-10T14:19:25.814Z,8.70
2018-12-10T14:21:54.231Z,8.60
2018-12-10T14:24:21.989Z,8.60
2018-12-10T14:26:49.714Z,8.60
2018-12-10T14:29:17.741Z,8.60
2018-12-10T14:31:45.662Z,8.60
2018-12-10T14:34:19.094Z,8.60
2018-12-10T14:36:47.978Z,8.60
2018-12-10T14:39:16.234Z,8.50
2018-12-10T14:41:44.459Z,8.50
2018-12-10T14:44:12.349Z,8.50
2018-12-10T14:46:40.764Z,8.50
2018-12-10T14:49:08.883Z,8.50
2018-12-10T14:51:36.924Z,8.40
2018-12-10T14:54:04.691Z,8.40
2018-12-10T14:56:32.949Z,8.50
2018-12-10T14:59:01.511Z,8.40
2018-12-10T15:01:29.446Z,8.40
2018-12-10T15:03:57.260Z,8.40
2018-12-10T15:06:24.963Z,8.30
2018-12-10T15:08:53.415Z,8.30
2018-12-10T15:11:21.204Z,8.20
2018-12-10T15:13:48.982Z,8.20
2018-12-10T15:16:16.742Z,8.20
2018-12-10T15:18:44.518Z,8.20
2018-12-10T15:21:12.294Z,8.10
2018-12-10T15:23:39.942Z,8.10
2018-12-10T15:26:08.023Z,8.10
2018-12-10T15:28:35.670Z,8.00
2018-12-10T15:31:04.556Z,8.00
2018-12-10T15:33:32.281Z,8.00
2018-12-10T15:36:00.308Z,8.00
2018-12-10T15:38:28.713Z,7.90
2018-12-10T15:40:57.129Z,8.00
2018-12-10T15:43:24.867Z,7.90
2018-12-10T15:45:52.685Z,7.80
2018-12-10T15:51:04.996Z,7.80
2018-12-10T15:53:32.692Z,7.90
2018-12-10T15:56:00.527Z,7.80
2018-12-10T15:58:28.487Z,7.80
2018-12-10T16:00:56.197Z,7.80
2018-12-10T16:03:24.530Z,7.70
2018-12-10T16:05:52.296Z,7.70
2018-12-10T16:08:19.990Z,7.80
2018-12-10T16:10:47.622Z,7.80
2018-12-10T16:13:15.281Z,7.70
2018-12-10T16:15:42.978Z,7.70
2018-12-10T16:18:10.855Z,7.70
2018-12-10T16:20:40.062Z,7.80
2018-12-10T16:23:07.827Z,7.80
2018-12-10T16:25:35.720Z,7.80
2018-12-10T16:28:03.589Z,7.80
2018-12-10T16:30:32.248Z,7.70
2018-12-10T16:33:00.329Z,7.70
2018-12-10T16:35:28.098Z,7.70
2018-12-10T16:37:56.098Z,7.70
2018-12-10T16:40:23.903Z,7.70
2018-12-10T16:42:51.680Z,7.70
2018-12-10T16:45:19.456Z,7.70
2018-12-10T16:47:48.832Z,7.70
2018-12-10T16:50:16.858Z,7.60
2018-12-10T16:52:44.663Z,7.60
2018-12-10T16:55:12.719Z,7.60
2018-12-10T16:57:41.168Z,7.60
2018-12-10T17:00:12.040Z,7.50
2018-12-10T17:02:40.919Z,7.50
2018-12-10T17:05:09.125Z,7.50
2018-12-10T17:07:36.994Z,7.50
2018-12-10T17:10:07.519Z,7.50
2018-12-10T17:12:35.660Z,7.60
2018-12-10T17:15:05.408Z,7.70
2018-12-10T17:17:33.915Z,7.70
2018-12-10T17:20:01.816Z,7.60
2018-12-10T17:22:30.374Z,7.40
2018-12-10T17:24:58.427Z,7.00
2018-12-10T17:27:26.565Z,6.40
2018-12-10T17:29:54.452Z,5.90
2018-12-10T17:32:22.878Z,5.60
2018-12-10T17:34:50.778Z,5.60
2018-12-10T17:37:18.675Z,5.60
2018-12-10T17:39:46.503Z,5.60
2018-12-10T17:42:14.499Z,5.60
2018-12-10T17:44:42.371Z,5.60
2018-12-10T17:47:10.359Z,5.60
2018-12-10T17:49:38.818Z,5.60
2018-12-10T17:52:07.193Z,5.70
2018-12-10T17:54:34.996Z,5.70
2018-12-10T17:57:02.850Z,5.70
2018-12-10T17:59:30.624Z,5.70
2018-12-10T18:01:59.737Z,5.70
2018-12-10T18:04:27.565Z,5.80
2018-12-10T18:06:55.415Z,5.70
2018-12-10T18:09:23.405Z,5.70
2018-12-10T18:11:51.373Z,5.70
2018-12-10T18:14:20.042Z,5.80
2018-12-10T18:16:47.714Z,5.80
2018-12-10T18:19:15.686Z,5.80
2018-12-10T18:21:43.520Z,5.70
2018-12-10T18:24:11.902Z,5.80
2018-12-10T18:26:39.689Z,5.80
2018-12-10T18:29:07.497Z,5.80
2018-12-10T18:31:35.226Z,5.70
2018-12-10T18:34:03.576Z,5.70
2018-12-10T18:36:31.349Z,5.70
2018-12-10T18:38:59.274Z,5.70
2018-12-10T18:41:27.134Z,5.80
2018-12-10T18:43:55.144Z,5.80
2018-12-10T18:46:23.024Z,5.80
2018-12-10T18:48:52.075Z,5.80
2018-12-10T18:51:19.789Z,5.80
2018-12-10T18:53:47.979Z,5.70
2018-12-10T18:56:16.120Z,5.70
2018-12-10T18:58:44.229Z,5.70
2018-12-10T19:01:12.249Z,5.70
2018-12-10T19:03:40.270Z,5.70
2018-12-10T19:06:08.121Z,5.70
2018-12-10T19:08:36.137Z,5.70
2018-12-10T19:11:04.350Z,5.60
2018-12-10T19:13:32.383Z,5.60
2018-12-10T19:16:00.320Z,5.50
2018-12-10T19:18:28.179Z,5.50
2018-12-10T19:20:56.036Z,5.50
2018-12-10T19:23:25.345Z,5.30
2018-12-10T19:25:53.904Z,5.30
2018-12-10T19:28:21.830Z,5.20
2018-12-10T19:30:50.211Z,5.30
2018-12-10T19:33:17.972Z,5.30
2018-12-10T19:35:45.830Z,5.40
2018-12-10T19:38:13.630Z,5.30
2018-12-10T19:40:41.433Z,5.30
2018-12-10T19:43:09.303Z,5.30
2018-12-10T19:45:37.032Z,5.40
2018-12-10T19:48:04.983Z,5.40
2018-12-10T19:50:32.904Z,5.40
2018-12-10T19:53:00.675Z,5.30
2018-12-10T19:55:28.513Z,5.30
2018-12-10T19:57:56.362Z,5.20
2018-12-10T20:00:24.200Z,5.20
2018-12-10T20:02:52.845Z,5.20
2018-12-10T20:05:26.201Z,5.20
2018-12-10T20:07:54.077Z,5.30
2018-12-10T20:10:21.931Z,5.30
2018-12-10T20:12:49.671Z,5.30
2018-12-10T20:15:17.517Z,5.30
2018-12-10T20:17:45.220Z,5.20
2018-12-10T20:20:14.151Z,5.20
2018-12-10T20:22:42.017Z,5.20
2018-12-10T20:25:09.852Z,5.20
2018-12-10T20:27:37.696Z,5.20
2018-12-10T20:30:06.157Z,5.30
2018-12-10T20:32:34.685Z,5.20
2018-12-10T20:35:03.927Z,5.30
2018-12-10T20:37:31.652Z,5.30
2018-12-10T20:40:00.059Z,5.40
2018-12-10T20:42:27.778Z,5.30
2018-12-10T20:44:55.615Z,5.40
2018-12-10T20:47:23.392Z,5.40
2018-12-10T20:49:51.845Z,5.40
2018-12-10T20:52:19.609Z,5.40
2018-12-10T20:54:47.463Z,5.50
2018-12-10T20:57:15.357Z,5.50
2018-12-10T20:59:44.129Z,5.60
2018-12-10T21:02:12.080Z,5.50
2018-12-10T21:04:39.891Z,5.50
2018-12-10T21:07:07.747Z,5.50
2018-12-10T21:09:35.474Z,5.50
2018-12-10T21:12:03.567Z,5.50
2018-12-10T21:14:31.314Z,5.40
2018-12-10T21:16:59.140Z,5.40
2018-12-10T21:19:27.165Z,5.50
2018-12-10T21:21:55.151Z,5.50
2018-12-10T21:24:22.882Z,5.40
2018-12-10T21:26:50.650Z,5.60
2018-12-10T21:29:18.310Z,5.50
2018-12-10T21:31:45.981Z,5.50
2018-12-10T21:34:13.974Z,5.60
2018-12-10T21:36:41.838Z,5.50
2018-12-10T21:39:09.515Z,5.50
2018-12-10T21:41:37.420Z,5.50
2018-12-10T21:44:05.688Z,5.60
2018-12-10T21:46:33.501Z,5.60
2018-12-10T21:49:01.304Z,5.50
2018-12-10T21:51:29.013Z,5.50
2018-12-10T21:53:56.740Z,5.50
2018-12-10T21:56:24.623Z,5.50
2018-12-10T21:58:52.443Z,5.40
2018-12-10T22:01:20.434Z,5.40
2018-12-10T22:03:48.237Z,5.40
2018-12-10T22:06:15.987Z,5.40
2018-12-10T22:08:43.647Z,5.40
2018-12-10T22:11:12.059Z,5.40
2018-12-10T22:13:39.799Z,5.30
2018-12-10T22:16:07.683Z,5.30
2018-12-10T22:18:35.379Z,5.10
2018-12-10T22:21:03.206Z,5.00
2018-12-10T22:23:31.084Z,5.00
2018-12-10T22:25:59.516Z,4.90
2018-12-10T22:28:27.258Z,4.90
2018-12-10T22:30:55.698Z,4.90
2018-12-10T22:33:23.392Z,4.80
2018-12-10T22:35:51.083Z,4.80
2018-12-10T22:38:18.928Z,4.70
2018-12-10T22:40:46.632Z,4.70
2018-12-10T22:43:14.319Z,4.70
2018-12-10T22:45:42.019Z,4.70
2018-12-10T22:48:09.689Z,4.70
2018-12-10T22:50:37.881Z,4.70
2018-12-10T22:53:05.619Z,4.80
2018-12-10T22:55:33.908Z,4.80
2018-12-10T22:58:01.654Z,4.80
2018-12-10T23:00:34.908Z,4.70
2018-12-10T23:03:03.262Z,4.70
2018-12-10T23:05:30.896Z,4.80
2018-12-10T23:07:58.558Z,4.80
2018-12-10T23:10:36.083Z,4.70
2018-12-10T23:13:03.897Z,4.70
2018-12-10T23:15:32.653Z,4.70
2018-12-10T23:18:00.372Z,4.70
2018-12-10T23:20:28.025Z,4.70
2018-12-10T23:22:55.748Z,4.60
2018-12-10T23:25:23.477Z,4.50
2018-12-10T23:27:51.666Z,4.50
2018-12-10T23:30:19.322Z,4.50
2018-12-10T23:32:46.966Z,4.50
2018-12-10T23:35:14.707Z,4.60
2018-12-10T23:37:42.326Z,4.50
2018-12-10T23:40:09.932Z,4.50
2018-12-10T23:42:42.867Z,4.50
2018-12-10T23:45:10.545Z,4.60
2018-12-10T23:47:38.226Z,4.70
2018-12-10T23:50:06.197Z,4.70
2018-12-10T23:52:34.715Z,4.60
2018-12-10T23:55:02.705Z,4.70
2018-12-10T23:57:30.971Z,4.70
2018-12-10T23:59:59.306Z,4.70
